Time;durP1;ratioP1;P1;durP2;ratioP2;P2;SDS_P1;SDS_P2;PMS_P1;PMS_P2;Temp;Humidity;BMP_temperature;BMP_pressure;BME280_temperature;BME280_humidity;BME280_pressure;Samples;Min_cycle;Max_cycle;Signal;HPM_P1;HPM_P2
2022/05/25 00:01:46;;;;;;;8.93;4.85;;;22.20;99.90;;;;;;5013551;28;20560;-83
2022/05/25 00:04:14;;;;;;;10.40;4.93;;;22.20;99.90;;;;;;4996327;28;20038;-83
2022/05/25 00:06:43;;;;;;;7.97;4.68;;;22.20;99.90;;;;;;5013919;28;20431;-82
2022/05/25 00:09:10;;;;;;;9.20;5.20;;;22.10;99.90;;;;;;4996151;28;20105;-81
2022/05/25 00:11:38;;;;;;;7.90;4.80;;;22.10;99.90;;;;;;5013106;28;20029;-83
2022/05/25 00:14:08;;;;;;;9.18;5.30;;;22.10;99.90;;;;;;5013418;28;20060;-82
2022/05/25 00:16:36;;;;;;;10.38;5.20;;;22.10;99.90;;;;;;4996178;28;20030;-80
2022/05/25 00:21:50;;;;;;;8.88;5.30;;;21.70;99.90;;;;;;4995639;28;20045;-82
2022/05/25 00:24:18;;;;;;;7.63;4.97;;;21.50;99.90;;;;;;5013003;28;20379;-81
2022/05/25 00:26:45;;;;;;;7.97;5.18;;;21.40;99.90;;;;;;5013407;28;20045;-83
2022/05/25 00:29:14;;;;;;;11.05;4.93;;;21.40;99.90;;;;;;5013098;28;20433;-83
2022/05/25 00:31:42;;;;;;;10.52;5.00;;;21.20;99.90;;;;;;5013660;28;20034;-80
2022/05/25 00:34:09;;;;;;;13.60;4.63;;;21.20;99.90;;;;;;4979885;28;20054;-79
2022/05/25 00:36:52;;;;;;;8.68;5.00;;;21.40;99.90;;;;;;5013439;28;20113;-81
2022/05/25 00:39:20;;;;;;;7.30;4.88;;;21.50;99.90;;;;;;4995687;28;20390;-82
2022/05/25 00:41:49;;;;;;;13.00;5.35;;;21.40;99.90;;;;;;5013225;28;20045;-78
2022/05/25 00:44:16;;;;;;;10.05;5.18;;;21.00;99.90;;;;;;4995516;28;20427;-78
2022/05/25 00:46:44;;;;;;;12.65;5.38;;;21.10;99.90;;;;;;5013397;28;20046;-81
2022/05/25 00:49:21;;;;;;;8.68;5.50;;;20.90;99.90;;;;;;4995238;28;20033;-81
2022/05/25 00:51:56;;;;;;;7.78;5.25;;;20.70;99.90;;;;;;4995587;28;20095;-81
2022/05/25 00:54:38;;;;;;;12.95;6.75;;;20.80;99.90;;;;;;5012052;28;20061;-80
2022/05/25 00:57:21;;;;;;;13.15;7.43;;;20.90;99.90;;;;;;5012546;28;20038;-80
2022/05/25 01:00:15;;;;;;;12.82;7.10;;;20.70;99.90;;;;;;5012842;28;20576;-80
2022/05/25 01:02:51;;;;;;;13.07;7.93;;;21.10;99.90;;;;;;5012747;28;20080;-80
2022/05/25 01:05:45;;;;;;;11.95;8.65;;;20.90;99.90;;;;;;5012585;28;20111;-80
2022/05/25 01:08:18;;;;;;;14.02;8.80;;;20.50;99.90;;;;;;5012399;28;20118;-81
2022/05/25 01:10:54;;;;;;;14.55;9.07;;;20.90;99.90;;;;;;5012542;28;20128;-79
2022/05/25 01:13:34;;;;;;;18.88;7.72;;;21.00;99.90;;;;;;4994618;28;20372;-79
2022/05/25 01:16:17;;;;;;;18.48;8.93;;;21.10;99.90;;;;;;5012171;28;20096;-85
2022/05/25 01:18:59;;;;;;;13.20;7.70;;;21.10;99.90;;;;;;4995645;28;20356;-80
2022/05/25 01:21:42;;;;;;;10.80;7.47;;;21.00;99.90;;;;;;4994779;28;20136;-83
2022/05/25 01:24:18;;;;;;;17.15;8.13;;;21.10;99.90;;;;;;5011781;28;20037;-82
2022/05/25 01:27:10;;;;;;;12.60;8.02;;;21.20;99.90;;;;;;4994434;28;20033;-83
2022/05/25 01:29:45;;;;;;;12.05;7.70;;;21.10;99.90;;;;;;4994871;28;20133;-82
2022/05/25 01:32:51;;;;;;;10.73;7.35;;;20.90;99.90;;;;;;4994728;28;20034;-85
2022/05/25 01:35:56;;;;;;;12.32;8.02;;;21.00;99.90;;;;;;4989817;28;20077;-82
2022/05/25 01:38:40;;;;;;;16.00;7.38;;;21.00;99.90;;;;;;5012068;28;20092;-82
2022/05/25 01:41:39;;;;;;;13.85;8.63;;;21.00;99.90;;;;;;4994450;28;20076;-80
2022/05/25 01:44:14;;;;;;;16.65;8.82;;;21.00;99.90;;;;;;4994663;28;20034;-81
2022/05/25 01:46:52;;;;;;;10.35;7.78;;;21.00;99.90;;;;;;5011820;28;20108;-80
2022/05/25 01:49:24;;;;;;;14.43;8.43;;;20.90;99.90;;;;;;5011959;28;20046;-80
2022/05/25 01:51:57;;;;;;;15.55;8.10;;;21.00;99.90;;;;;;4994216;28;20498;-82
2022/05/25 01:54:31;;;;;;;13.57;7.43;;;20.90;99.90;;;;;;4994425;28;20702;-84
2022/05/25 01:57:03;;;;;;;10.95;7.00;;;20.90;99.90;;;;;;5011482;28;20549;-78
2022/05/25 01:59:31;;;;;;;12.02;7.30;;;20.80;99.90;;;;;;4994458;28;20062;-79
2022/05/25 02:04:50;;;;;;;18.17;7.83;;;20.60;99.90;;;;;;4998850;28;20405;-80
2022/05/25 02:07:55;;;;;;;11.40;7.32;;;20.30;99.90;;;;;;5015176;28;20349;-80
2022/05/25 02:10:23;;;;;;;14.43;7.70;;;20.30;99.90;;;;;;4998005;28;20132;-81
2022/05/25 02:13:11;;;;;;;13.80;8.23;;;20.20;99.90;;;;;;4998296;28;20046;-83
2022/05/25 02:15:55;;;;;;;11.20;6.97;;;19.80;99.90;;;;;;4997802;28;20054;-82
2022/05/25 02:18:43;;;;;;;15.52;7.47;;;19.90;99.90;;;;;;5015755;28;20113;-81
2022/05/25 02:21:20;;;;;;;13.00;7.15;;;20.20;99.90;;;;;;4997749;28;20317;-82
2022/05/25 02:24:01;;;;;;;13.18;7.18;;;20.30;99.90;;;;;;5015697;28;20042;-81
2022/05/25 02:26:33;;;;;;;10.98;7.20;;;20.10;99.90;;;;;;4998195;28;20041;-81
2022/05/25 02:29:10;;;;;;;12.75;8.40;;;20.00;99.90;;;;;;5015921;28;20096;-81
2022/05/25 02:31:48;;;;;;;15.75;6.88;;;20.00;99.90;;;;;;5015397;28;20068;-79
2022/05/25 02:34:20;;;;;;;13.23;7.05;;;20.20;99.90;;;;;;5014430;28;20129;-80
2022/05/25 02:36:49;;;;;;;13.15;6.60;;;19.80;99.90;;;;;;4998245;28;20136;-79
2022/05/25 02:39:17;;;;;;;11.98;6.65;;;19.70;99.90;;;;;;4997969;28;20041;-83
2022/05/25 02:41:55;;;;;;;10.98;7.20;;;20.00;99.90;;;;;;4981331;28;20049;-83
2022/05/25 02:44:24;;;;;;;10.35;6.70;;;20.20;99.90;;;;;;5015623;28;20049;-80
2022/05/25 02:46:52;;;;;;;10.77;6.93;;;20.30;99.90;;;;;;4981721;28;20034;-80
2022/05/25 02:49:19;;;;;;;12.48;7.13;;;20.20;99.90;;;;;;5015317;28;20048;-80
2022/05/25 02:51:47;;;;;;;16.10;6.80;;;20.10;99.90;;;;;;5014938;28;20038;-80
2022/05/25 02:54:14;;;;;;;16.00;8.05;;;20.00;99.90;;;;;;5014988;28;20041;-80
2022/05/25 02:56:42;;;;;;;9.93;7.20;;;19.80;99.90;;;;;;4997164;28;20422;-82
2022/05/25 02:59:09;;;;;;;9.18;6.53;;;19.70;99.90;;;;;;4997898;28;20046;-81
2022/05/25 03:01:50;;;;;;;9.95;6.60;;;19.70;99.90;;;;;;4992835;28;20134;-81
2022/05/25 03:04:19;;;;;;;10.15;6.63;;;19.70;99.90;;;;;;4994138;28;20048;-81
2022/05/25 03:06:47;;;;;;;13.70;6.65;;;19.90;99.90;;;;;;4993810;28;20038;-82
2022/05/25 03:09:15;;;;;;;13.57;7.15;;;19.60;99.90;;;;;;4994895;28;20093;-82
2022/05/25 03:11:45;;;;;;;10.43;6.47;;;19.80;99.90;;;;;;4994212;28;20065;-78
2022/05/25 03:14:12;;;;;;;13.63;6.88;;;19.90;99.90;;;;;;4977660;28;20391;-80
2022/05/25 03:16:40;;;;;;;22.38;6.90;;;19.90;99.90;;;;;;4993861;28;20054;-79
2022/05/25 03:19:07;;;;;;;9.75;6.60;;;19.80;99.90;;;;;;4993554;28;20509;-80
2022/05/25 03:21:35;;;;;;;11.07;6.90;;;19.60;99.90;;;;;;5009648;28;20160;-82
2022/05/25 03:24:02;;;;;;;16.05;9.70;;;19.60;99.90;;;;;;4993096;28;20038;-80
2022/05/25 03:26:30;;;;;;;16.05;10.75;;;19.60;99.90;;;;;;4993132;28;20557;-80
2022/05/25 03:28:57;;;;;;;13.40;9.80;;;19.60;99.90;;;;;;4993504;28;20076;-79
2022/05/25 03:31:25;;;;;;;11.30;8.00;;;19.60;99.90;;;;;;4976979;28;20046;-80
2022/05/25 03:33:52;;;;;;;16.25;8.63;;;19.80;99.90;;;;;;4977342;28;20443;-81
2022/05/25 03:36:20;;;;;;;11.38;7.75;;;19.70;99.90;;;;;;4994545;28;20431;-80
2022/05/25 03:38:47;;;;;;;12.43;8.00;;;19.80;99.90;;;;;;4992787;28;20484;-81
2022/05/25 03:41:17;;;;;;;9.82;7.88;;;19.90;99.90;;;;;;4992891;28;20046;-82
2022/05/25 03:43:46;;;;;;;10.07;7.72;;;19.80;99.90;;;;;;4992921;28;20373;-81
2022/05/25 03:46:14;;;;;;;16.67;7.90;;;19.70;99.90;;;;;;4977219;28;20110;-81
2022/05/25 03:48:41;;;;;;;10.98;7.95;;;19.60;99.90;;;;;;4993217;28;20452;-81
2022/05/25 03:51:09;;;;;;;12.90;7.63;;;19.70;99.90;;;;;;4992451;28;20057;-81
2022/05/25 03:53:37;;;;;;;13.18;6.93;;;19.40;99.90;;;;;;4992760;28;20419;-81
2022/05/25 03:56:05;;;;;;;11.10;7.10;;;19.30;99.90;;;;;;4994046;28;20097;-82
2022/05/25 03:58:32;;;;;;;13.30;7.63;;;19.30;99.90;;;;;;4993877;28;20062;-81
2022/05/25 04:00:59;;;;;;;12.68;6.75;;;19.40;99.90;;;;;;4992870;28;20105;-83
2022/05/25 04:03:27;;;;;;;17.55;6.57;;;19.30;99.90;;;;;;4992166;28;20080;-82
2022/05/25 04:05:54;;;;;;;11.95;6.20;;;19.40;99.90;;;;;;4977038;28;20369;-83
2022/05/25 04:08:22;;;;;;;12.13;6.00;;;19.50;99.90;;;;;;4992369;28;20038;-81
2022/05/25 04:10:49;;;;;;;15.23;6.32;;;19.50;99.90;;;;;;4993814;28;20065;-80
2022/05/25 04:13:16;;;;;;;12.00;6.95;;;19.10;99.90;;;;;;4992998;28;20448;-85
2022/05/25 04:15:49;;;;;;;16.52;6.68;;;19.30;99.90;;;;;;4992615;28;20100;-85
2022/05/25 04:18:17;;;;;;;13.20;6.85;;;19.40;99.90;;;;;;4992808;28;20054;-85
2022/05/25 04:20:44;;;;;;;17.50;7.90;;;19.40;99.90;;;;;;4992862;28;20488;-85
2022/05/25 04:23:12;;;;;;;16.13;7.80;;;19.60;99.90;;;;;;4992148;28;20046;-86
2022/05/25 04:25:41;;;;;;;10.45;6.90;;;19.70;99.90;;;;;;4993678;28;20042;-82
2022/05/25 04:28:08;;;;;;;14.52;8.38;;;19.50;99.90;;;;;;4976678;28;20415;-85
2022/05/25 04:30:36;;;;;;;11.50;7.10;;;19.60;99.90;;;;;;4993421;28;20042;-85
2022/05/25 04:33:03;;;;;;;17.70;8.95;;;19.60;99.90;;;;;;4993912;28;20038;-82
2022/05/25 04:35:30;;;;;;;16.95;8.80;;;19.50;99.90;;;;;;4992246;28;20049;-87
2022/05/25 04:37:58;;;;;;;17.45;8.23;;;19.70;99.90;;;;;;4992288;28;20073;-82
2022/05/25 04:40:34;;;;;;;15.25;7.95;;;19.90;99.90;;;;;;4992382;28;20045;-86
2022/05/25 04:43:14;;;;;;;12.98;7.70;;;20.00;99.90;;;;;;4993106;28;20108;-86
2022/05/25 04:45:46;;;;;;;33.17;21.95;;;19.80;99.90;;;;;;5008772;28;20436;-85
2022/05/25 04:48:16;;;;;;;74.45;45.35;;;20.00;99.90;;;;;;4993223;28;20109;-83
2022/05/25 04:50:48;;;;;;;26.88;13.70;;;20.20;99.90;;;;;;4992108;28;20484;-84
2022/05/25 04:53:18;;;;;;;14.45;9.05;;;20.20;99.90;;;;;;4993150;28;20039;-87
2022/05/25 04:58:58;;;;;;;20.67;10.40;;;20.30;99.90;;;;;;4992555;28;20054;-86
2022/05/25 05:01:26;;;;;;;15.07;9.65;;;20.60;99.90;;;;;;4992869;28;20046;-81
2022/05/25 05:03:58;;;;;;;14.25;8.10;;;20.70;99.90;;;;;;5012599;28;20045;-80
2022/05/25 05:06:26;;;;;;;16.77;8.75;;;20.60;99.90;;;;;;5011057;28;20064;-80
2022/05/25 05:08:53;;;;;;;15.68;8.95;;;20.70;99.90;;;;;;4995276;28;20478;-79
2022/05/25 05:11:22;;;;;;;13.32;8.15;;;20.70;99.90;;;;;;4994987;28;20455;-84
2022/05/25 05:13:49;;;;;;;108.63;71.00;;;20.50;99.90;;;;;;5012515;28;20491;-79
2022/05/25 05:16:16;;;;;;;63.90;43.67;;;20.60;99.90;;;;;;4994957;28;20104;-80
2022/05/25 05:18:44;;;;;;;101.22;65.13;;;20.80;99.90;;;;;;4994771;28;20042;-84
2022/05/25 05:21:12;;;;;;;100.30;67.47;;;20.70;99.90;;;;;;5012191;28;20042;-82
2022/05/25 05:23:40;;;;;;;61.47;44.28;;;20.80;99.90;;;;;;4994725;28;20045;-82
2022/05/25 05:26:08;;;;;;;106.40;70.03;;;20.80;99.90;;;;;;5011711;28;20038;-82
2022/05/25 05:28:39;;;;;;;21.40;14.55;;;20.70;99.90;;;;;;4995124;28;20033;-80
2022/05/25 05:31:07;;;;;;;;;;;20.70;99.90;;;;;;5012888;28;20509;-79
2022/05/25 05:33:35;;;;;;;22.25;9.48;;;20.70;99.90;;;;;;5014985;28;19928;-80
2022/05/25 05:36:13;;;;;;;15.68;9.82;;;20.60;99.90;;;;;;5000944;28;20565;-80
2022/05/25 05:38:49;;;;;;;15.43;8.60;;;20.60;99.90;;;;;;4984395;28;20116;-79
2022/05/25 05:41:21;;;;;;;15.32;9.32;;;20.70;99.90;;;;;;5010085;28;20490;-80
2022/05/25 05:43:49;;;;;;;15.27;9.15;;;20.80;99.90;;;;;;5020119;28;20034;-80
2022/05/25 05:46:16;;;;;;;16.90;9.77;;;20.90;99.90;;;;;;5017582;28;20038;-81
2022/05/25 05:48:45;;;;;;;16.50;10.23;;;21.20;99.90;;;;;;5003241;28;20034;-81
2022/05/25 05:51:12;;;;;;;10.68;8.15;;;21.30;99.90;;;;;;5000191;28;20391;-81
2022/05/25 05:53:40;;;;;;;15.43;8.63;;;21.40;99.90;;;;;;5012352;28;20041;-80
2022/05/25 05:56:08;;;;;;;18.98;9.68;;;21.40;99.90;;;;;;4996706;28;20050;-79
2022/05/25 05:58:36;;;;;;;14.23;8.60;;;21.50;99.90;;;;;;5001182;28;20061;-80
2022/05/25 06:01:03;;;;;;;18.98;9.15;;;21.50;99.90;;;;;;5022843;28;20033;-81
2022/05/25 06:03:31;;;;;;;15.05;9.73;;;21.40;99.90;;;;;;4997897;28;20609;-81
2022/05/25 06:05:59;;;;;;;15.57;9.05;;;21.50;99.90;;;;;;5013789;28;20529;-81
2022/05/25 06:08:27;;;;;;;23.75;9.57;;;21.50;99.90;;;;;;5014212;28;20041;-81
2022/05/25 06:10:58;;;;;;;16.90;8.57;;;21.50;99.90;;;;;;5031828;28;20136;-79
2022/05/25 06:13:25;;;;;;;17.25;8.65;;;21.60;99.90;;;;;;5031655;28;20077;-78
2022/05/25 06:21:26;;;;;;;14.50;8.60;;;21.80;99.90;;;;;;5032018;28;20487;-77
2022/05/25 06:23:53;;;;;;;11.48;7.95;;;22.00;99.90;;;;;;5031827;28;20049;-78
2022/05/25 06:26:23;;;;;;;88.93;59.55;;;22.10;99.90;;;;;;5031285;28;20127;-78
2022/05/25 06:28:50;;;;;;;227.25;143.18;;;22.20;99.90;;;;;;5031749;28;20041;-77
2022/05/25 06:31:17;;;;;;;42.92;30.85;;;22.20;99.90;;;;;;5031594;28;20487;-79
2022/05/25 06:33:45;;;;;;;21.13;14.75;;;22.30;99.90;;;;;;5013843;28;20051;-82
2022/05/25 06:36:17;;;;;;;13.15;8.15;;;22.40;99.90;;;;;;5014029;28;20073;-79
2022/05/25 06:38:46;;;;;;;16.00;8.60;;;22.40;99.90;;;;;;5030941;28;20068;-78
2022/05/25 06:41:14;;;;;;;13.45;8.98;;;22.20;99.90;;;;;;5013825;28;20041;-77
2022/05/25 06:43:41;;;;;;;11.82;8.77;;;22.40;99.90;;;;;;4995100;28;20391;-79
2022/05/25 06:46:11;;;;;;;12.75;9.35;;;22.40;99.90;;;;;;5010711;28;20050;-79
2022/05/25 06:48:52;;;;;;;15.15;9.30;;;22.40;99.90;;;;;;5014356;28;20044;-78
2022/05/25 06:51:25;;;;;;;13.30;7.95;;;22.40;99.90;;;;;;5015321;28;20042;-78
2022/05/25 06:53:53;;;;;;;15.88;7.47;;;22.50;99.90;;;;;;4997236;28;20042;-79
2022/05/25 06:56:24;;;;;;;13.38;7.72;;;22.50;99.90;;;;;;4997871;28;20054;-78
2022/05/25 06:58:52;;;;;;;;;;;22.50;99.90;;;;;;4997695;28;20136;-79
2022/05/25 07:01:21;;;;;;;9.80;6.57;;;22.50;99.90;;;;;;5014835;28;19964;-78
2022/05/25 07:03:52;;;;;;;8.32;5.53;;;22.60;99.90;;;;;;4997208;28;20074;-78
2022/05/25 07:06:22;;;;;;;10.32;6.97;;;22.60;99.90;;;;;;5014584;28;20331;-78
2022/05/25 07:08:50;;;;;;;17.52;6.32;;;22.70;99.90;;;;;;5014496;28;20072;-78
2022/05/25 07:11:18;;;;;;;19.70;7.43;;;22.60;99.90;;;;;;5014612;28;20050;-78
2022/05/25 07:13:45;;;;;;;10.35;6.57;;;22.70;99.90;;;;;;4996776;28;20073;-78
2022/05/25 07:16:16;;;;;;;8.20;6.15;;;22.70;99.90;;;;;;5014318;28;20046;-77
2022/05/25 07:18:45;;;;;;;14.23;6.95;;;22.90;99.90;;;;;;5014407;28;20052;-78
2022/05/25 07:21:16;;;;;;;11.23;6.85;;;23.10;99.90;;;;;;5014208;28;20491;-78
2022/05/25 07:23:45;;;;;;;10.95;6.45;;;23.10;99.90;;;;;;5014769;28;20459;-79
2022/05/25 07:26:14;;;;;;;10.00;6.60;;;23.00;99.90;;;;;;4997280;28;20440;-78
2022/05/25 07:28:41;;;;;;;9.48;6.57;;;23.10;99.90;;;;;;4996421;28;20283;-78
2022/05/25 07:31:27;;;;;;;10.45;6.15;;;23.10;99.90;;;;;;4996407;28;20056;-78
2022/05/25 07:34:12;;;;;;;13.55;6.35;;;23.10;99.90;;;;;;4995923;28;20507;-79
2022/05/25 07:36:42;;;;;;;9.32;5.60;;;23.10;99.90;;;;;;5012824;28;20030;-81
2022/05/25 07:39:14;;;;;;;10.55;6.30;;;23.20;99.90;;;;;;4996105;28;20042;-78
2022/05/25 07:41:48;;;;;;;8.32;5.65;;;23.30;99.90;;;;;;4996442;28;20128;-79
2022/05/25 07:44:21;;;;;;;11.85;6.13;;;23.40;99.90;;;;;;4996336;28;20569;-81
2022/05/25 07:46:49;;;;;;;7.45;5.85;;;23.40;99.90;;;;;;5014120;28;20060;-78
2022/05/25 07:49:17;;;;;;;12.35;5.55;;;23.40;99.90;;;;;;5013752;28;20175;-79
2022/05/25 07:51:45;;;;;;;9.88;5.85;;;23.40;99.90;;;;;;5013329;28;20034;-80
2022/05/25 07:54:12;;;;;;;8.50;5.22;;;23.50;99.90;;;;;;4979983;28;20050;-80
2022/05/25 07:56:40;;;;;;;12.02;5.70;;;23.50;99.90;;;;;;5013910;28;20042;-78
2022/05/25 07:59:13;;;;;;;9.93;5.82;;;23.30;99.90;;;;;;5012749;28;20116;-82
2022/05/25 08:07:24;;;;;;;10.65;5.95;;;23.50;99.90;;;;;;5014000;28;20092;-78
2022/05/25 08:10:04;;;;;;;8.65;5.50;;;23.30;99.90;;;;;;4995886;28;20046;-77
2022/05/25 08:12:32;;;;;;;10.23;5.07;;;23.30;99.90;;;;;;4995775;28;20061;-80
2022/05/25 08:15:00;;;;;;;12.23;5.60;;;23.30;99.90;;;;;;4996389;28;20046;-79
2022/05/25 08:17:28;;;;;;;9.85;6.18;;;23.40;99.90;;;;;;4996174;28;20092;-80
2022/05/25 08:19:56;;;;;;;8.63;5.47;;;23.50;99.90;;;;;;4996170;28;20096;-80
2022/05/25 08:22:25;;;;;;;15.68;5.32;;;23.70;99.90;;;;;;5013182;28;20088;-81
2022/05/25 08:24:53;;;;;;;11.18;5.70;;;23.80;99.90;;;;;;5013619;28;20442;-82
2022/05/25 08:27:20;;;;;;;11.23;5.43;;;23.70;99.90;;;;;;4995521;28;20049;-79
2022/05/25 08:29:47;;;;;;;10.20;5.63;;;23.70;99.90;;;;;;5013019;28;20077;-78
2022/05/25 08:32:19;;;;;;;9.15;4.78;;;23.70;99.90;;;;;;4995857;28;20395;-79
2022/05/25 08:34:49;;;;;;;7.68;4.93;;;23.70;99.90;;;;;;4994887;28;20053;-78
2022/05/25 08:37:21;;;;;;;9.07;5.00;;;23.90;99.90;;;;;;5012423;28;20077;-80
2022/05/25 08:39:48;;;;;;;7.63;5.43;;;24.00;99.90;;;;;;5012792;28;20037;-81
2022/05/25 08:42:21;;;;;;;8.13;5.45;;;23.90;99.90;;;;;;5012585;28;20050;-81
2022/05/25 08:44:53;;;;;;;11.82;5.72;;;23.90;99.90;;;;;;5012723;28;20391;-81
2022/05/25 08:47:24;;;;;;;10.63;5.28;;;24.00;99.90;;;;;;5011565;28;20050;-82
2022/05/25 08:49:51;;;;;;;11.27;6.30;;;24.20;99.90;;;;;;5013012;28;20041;-80
2022/05/25 08:52:29;;;;;;;9.63;5.22;;;24.30;99.90;;;;;;5012142;28;20149;-79
2022/05/25 08:55:01;;;;;;;8.52;5.03;;;24.30;99.90;;;;;;5012790;28;20044;-83
2022/05/25 08:57:33;;;;;;;9.95;5.25;;;24.50;99.90;;;;;;5012492;28;20046;-78
2022/05/25 09:00:09;;;;;;;9.63;5.60;;;24.40;99.90;;;;;;5012316;28;20368;-79
2022/05/25 09:02:45;;;;;;;8.65;5.45;;;24.40;99.90;;;;;;5011996;28;20129;-80
2022/05/25 09:05:27;;;;;;;8.98;5.30;;;24.70;99.90;;;;;;4994697;28;20073;-79
2022/05/25 09:08:32;;;;;;;8.80;4.93;;;24.90;99.90;;;;;;5012130;28;20053;-82
2022/05/25 09:11:25;;;;;;;10.48;4.88;;;25.10;99.90;;;;;;4994190;28;20124;-81
2022/05/25 09:14:39;;;;;;;8.98;4.93;;;25.20;99.90;;;;;;4995226;28;20045;-76
2022/05/25 09:17:25;;;;;;;10.73;4.80;;;25.40;99.90;;;;;;4932010;28;20060;-79
2022/05/25 09:19:56;;;;;;;8.70;4.80;;;25.60;99.90;;;;;;4994660;28;20088;-81
2022/05/25 09:22:25;;;;;;;10.65;5.68;;;25.70;99.90;;;;;;4994403;28;20064;-81
2022/05/25 09:24:57;;;;;;;9.63;5.20;;;25.50;99.90;;;;;;5011892;28;20038;-79
2022/05/25 09:27:29;;;;;;;8.60;4.95;;;25.50;99.90;;;;;;4994269;28;20077;-82
2022/05/25 09:30:00;;;;;;;15.05;5.47;;;25.60;99.90;;;;;;4978604;28;20430;-82
2022/05/25 09:32:36;;;;;;;8.05;4.72;;;25.40;99.90;;;;;;5011179;28;20073;-80
2022/05/25 09:35:09;;;;;;;8.57;4.68;;;25.40;99.90;;;;;;4994510;28;20038;-78
2022/05/25 09:37:59;;;;;;;8.68;5.05;;;25.70;99.90;;;;;;4995273;28;20046;-76
2022/05/25 09:40:44;;;;;;;10.27;5.03;;;26.00;99.90;;;;;;4994077;28;20550;-82
2022/05/25 09:43:22;;;;;;;10.05;4.63;;;26.30;99.10;;;;;;5010329;28;20057;-80
2022/05/25 09:46:03;;;;;;;8.88;4.90;;;26.30;99.20;;;;;;4994386;28;20365;-81
2022/05/25 09:48:36;;;;;;;13.15;5.05;;;26.40;99.20;;;;;;5011212;28;20155;-78
2022/05/25 09:51:04;;;;;;;10.77;5.13;;;26.30;98.90;;;;;;5011610;28;20042;-78
2022/05/25 09:53:39;;;;;;;7.80;5.10;;;26.10;98.70;;;;;;5011295;28;20432;-79
2022/05/25 09:56:23;;;;;;;12.35;5.03;;;26.20;99.00;;;;;;5011152;28;20041;-77
2022/05/25 09:58:54;;;;;;;13.45;5.07;;;26.60;98.50;;;;;;5011444;28;20038;-76
2022/05/25 10:01:31;;;;;;;11.23;5.65;;;26.90;96.70;;;;;;5011484;28;20488;-77
2022/05/25 10:04:01;;;;;;;11.35;5.40;;;26.80;97.10;;;;;;4994185;28;20092;-77
2022/05/25 10:06:32;;;;;;;10.77;5.05;;;26.90;97.30;;;;;;5011259;28;20120;-75
2022/05/25 10:09:11;;;;;;;9.13;5.22;;;26.80;96.20;;;;;;4994338;28;20065;-77
2022/05/25 10:11:46;;;;;;;10.20;5.97;;;26.80;94.80;;;;;;5011231;28;20414;-76
2022/05/25 10:14:15;;;;;;;11.15;4.30;;;27.10;92.40;;;;;;5011620;28;20505;-76
2022/05/25 10:16:45;;;;;;;8.07;4.97;;;26.80;92.20;;;;;;5011306;28;20392;-76
2022/05/25 10:19:16;;;;;;;8.55;4.78;;;26.90;94.60;;;;;;4977797;28;20056;-78
2022/05/25 10:21:53;;;;;;;9.27;4.60;;;27.10;95.40;;;;;;5011632;28;20073;-78
2022/05/25 10:24:40;;;;;;;9.55;4.50;;;27.20;93.30;;;;;;5015366;28;20120;-77
2022/05/25 10:27:28;;;;;;;13.00;4.15;;;27.40;92.60;;;;;;4997783;28;20562;-79
2022/05/25 10:38:28;;;;;;;7.38;3.78;;;27.80;81.20;;;;;;5014664;28;20121;-75
2022/05/25 10:40:57;;;;;;;6.93;3.88;;;27.40;80.20;;;;;;4981346;28;20053;-77
2022/05/25 10:43:30;;;;;;;10.40;3.85;;;27.30;79.70;;;;;;5014848;28;20049;-77
2022/05/25 10:46:01;;;;;;;8.48;4.13;;;27.60;75.90;;;;;;5014655;28;20526;-80
2022/05/25 10:48:34;;;;;;;8.48;3.58;;;27.80;77.20;;;;;;4999740;28;20034;-80
2022/05/25 10:51:12;;;;;;;12.45;3.92;;;28.00;78.10;;;;;;5022225;28;20112;-80
2022/05/25 10:57:01;;;;;;;9.75;4.03;;;28.40;74.80;;;;;;5022175;28;20049;-78
2022/05/25 10:59:34;;;;;;;9.23;4.35;;;28.40;75.50;;;;;;5026725;28;20095;-79
2022/05/25 11:02:20;;;;;;;13.30;3.80;;;28.50;75.70;;;;;;5016435;28;20461;-77
2022/05/25 11:05:16;;;;;;;11.07;4.53;;;28.70;77.30;;;;;;5034604;28;20111;-79
2022/05/25 11:07:44;;;;;;;11.88;4.47;;;28.60;78.50;;;;;;5016704;28;20117;-79
2022/05/25 11:10:33;;;;;;;11.93;4.70;;;28.90;77.10;;;;;;5034508;28;20049;-78
2022/05/25 11:13:14;;;;;;;15.77;4.88;;;29.10;77.90;;;;;;5000125;28;20512;-78
2022/05/25 11:16:16;;;;;;;9.15;4.35;;;29.50;77.70;;;;;;5015466;28;20041;-79
2022/05/25 11:18:55;;;;;;;10.10;4.00;;;29.40;77.80;;;;;;4996823;28;20054;-80
2022/05/25 11:21:46;;;;;;;11.23;4.57;;;29.10;78.90;;;;;;4997083;28;20439;-79
2022/05/25 11:24:40;;;;;;;10.13;4.25;;;29.20;79.70;;;;;;4996637;28;20129;-81
2022/05/25 11:27:19;;;;;;;8.57;4.32;;;29.00;79.70;;;;;;5014234;28;20049;-77
2022/05/25 11:30:09;;;;;;;8.00;4.07;;;29.00;80.30;;;;;;4980729;28;20451;-77
2022/05/25 11:32:45;;;;;;;9.77;5.03;;;29.20;81.60;;;;;;5012153;28;20753;-77
2022/05/25 11:35:26;;;;;;;9.40;4.38;;;29.60;80.30;;;;;;4996507;28;20049;-77
2022/05/25 11:38:21;;;;;;;11.13;4.38;;;29.60;81.50;;;;;;4996053;28;20165;-79
2022/05/25 11:40:52;;;;;;;11.60;5.05;;;29.40;81.10;;;;;;4996318;28;20053;-78
2022/05/25 11:43:22;;;;;;;;;;;29.60;78.40;;;;;;5014103;28;20448;-73
2022/05/25 11:46:04;;;;;;;10.75;4.80;;;29.90;76.80;;;;;;4996110;28;19921;-77
2022/05/25 11:49:35;;;;;;;9.05;4.22;;;29.90;76.20;;;;;;4998147;28;20442;-77
2022/05/25 11:52:34;;;;;;;12.55;3.65;;;30.30;73.30;;;;;;5012771;28;20041;-74
2022/05/25 11:55:34;;;;;;;9.98;4.43;;;30.20;66.60;;;;;;4995644;28;20590;-76
2022/05/25 11:58:07;;;;;;;11.43;4.68;;;30.40;68.30;;;;;;5013413;28;20052;-74
2022/05/25 12:00:41;;;;;;;7.20;3.78;;;30.50;69.30;;;;;;5013379;28;20103;-77
2022/05/25 12:03:37;;;;;;;10.48;4.53;;;30.00;69.80;;;;;;4979231;28;20486;-74
2022/05/25 12:06:26;;;;;;;8.98;3.95;;;29.80;69.60;;;;;;4975721;28;20066;-78
2022/05/25 12:09:04;;;;;;;9.50;3.50;;;29.50;69.50;;;;;;4995965;28;20066;-76
2022/05/25 12:11:50;;;;;;;8.55;4.15;;;29.60;70.90;;;;;;5012980;28;20046;-78
2022/05/25 12:14:50;;;;;;;10.05;4.03;;;30.10;71.70;;;;;;5012907;28;20065;-77
2022/05/25 12:17:44;;;;;;;11.02;3.80;;;30.10;72.10;;;;;;5013002;28;20080;-79
2022/05/25 12:20:19;;;;;;;9.13;3.72;;;30.40;72.00;;;;;;5012951;28;20104;-80
2022/05/25 12:22:52;;;;;;;8.30;3.67;;;30.40;73.00;;;;;;4995108;28;20484;-75
2022/05/25 12:25:20;;;;;;;9.25;4.18;;;30.60;73.80;;;;;;5012888;28;20497;-82
2022/05/25 12:27:52;;;;;;;11.43;4.22;;;31.00;74.10;;;;;;4995550;28;20100;-80
2022/05/25 12:30:32;;;;;;;13.38;4.63;;;31.20;72.80;;;;;;5012361;28;20046;-81
2022/05/25 12:33:02;;;;;;;12.68;4.50;;;31.40;71.50;;;;;;5012804;28;20052;-80
2022/05/25 12:35:33;;;;;;;10.32;4.63;;;31.50;70.70;;;;;;5012720;28;20038;-81
2022/05/25 12:38:05;;;;;;;8.93;3.75;;;31.50;71.10;;;;;;5012742;28;20461;-83
2022/05/25 12:40:41;;;;;;;8.70;3.53;;;31.50;70.00;;;;;;4976892;28;20100;-79
2022/05/25 12:43:40;;;;;;;8.60;4.10;;;31.70;69.90;;;;;;5010535;28;20557;-80
2022/05/25 12:49:02;;;;;;;9.23;3.43;;;31.80;67.90;;;;;;5010419;28;20045;-78
2022/05/25 12:51:40;;;;;;;9.93;4.32;;;31.50;68.60;;;;;;5010538;28;20068;-79
2022/05/25 12:54:28;;;;;;;11.02;3.85;;;31.60;69.20;;;;;;4993109;28;20136;-81
2022/05/25 12:56:57;;;;;;;9.30;3.95;;;31.80;68.90;;;;;;4994547;28;20046;-80
2022/05/25 12:59:39;;;;;;;11.93;4.10;;;31.90;69.40;;;;;;5012357;28;20111;-80
2022/05/25 13:02:29;;;;;;;10.93;4.10;;;32.30;69.40;;;;;;5012283;28;20061;-81
2022/05/25 13:05:02;;;;;;;8.65;3.95;;;32.20;68.80;;;;;;5012502;28;20407;-80
2022/05/25 13:07:41;;;;;;;11.13;4.38;;;32.30;69.30;;;;;;5012330;28;20038;-82
2022/05/25 13:10:33;;;;;;;9.13;3.40;;;32.70;67.90;;;;;;5012206;28;20096;-80
2022/05/25 13:13:39;;;;;;;10.20;4.03;;;32.30;66.00;;;;;;4994937;28;20137;-80
2022/05/25 13:16:07;;;;;;;7.57;3.80;;;32.50;66.10;;;;;;4995018;28;20058;-80
2022/05/25 13:18:55;;;;;;;8.88;3.50;;;32.70;65.90;;;;;;4978709;28;20053;-81
2022/05/25 13:21:42;;;;;;;7.82;3.50;;;32.70;66.10;;;;;;4995485;28;20054;-81
2022/05/25 13:24:20;;;;;;;9.88;4.00;;;32.90;65.10;;;;;;5010977;28;20042;-80
2022/05/25 13:26:58;;;;;;;7.65;3.78;;;32.90;64.40;;;;;;5012120;28;20069;-82
2022/05/25 13:30:04;;;;;;;7.90;3.55;;;32.70;63.80;;;;;;4978404;28;20073;-82
2022/05/25 13:32:55;;;;;;;7.20;3.60;;;32.80;64.20;;;;;;5011284;28;20046;-82
2022/05/25 13:35:22;;;;;;;8.68;4.18;;;32.90;63.70;;;;;;4994218;28;20061;-78
2022/05/25 13:38:24;;;;;;;10.20;3.20;;;32.70;63.80;;;;;;5012310;28;20073;-84
2022/05/25 13:41:07;;;;;;;8.27;4.20;;;32.70;64.20;;;;;;4993920;28;20042;-79
2022/05/25 13:43:59;;;;;;;11.63;3.55;;;32.70;63.30;;;;;;5011848;28;20037;-81
2022/05/25 13:46:56;;;;;;;11.10;3.70;;;32.30;62.80;;;;;;5012207;28;20038;-80
2022/05/25 13:49:28;;;;;;;12.40;3.85;;;32.20;62.50;;;;;;5011588;28;20100;-81
2022/05/25 13:52:27;;;;;;;10.13;3.20;;;32.00;62.00;;;;;;5011944;28;20061;-81
2022/05/25 13:55:02;;;;;;;14.27;4.80;;;31.80;60.90;;;;;;5012125;28;20046;-81